CZSJ

Sandy Lake Airport

Sandy Lake, Ontario, Canada
METAR CZSJ 211500Z AUTO 18006KT 150V210 9SM CLR 08/M02 A3024 RMK SLP257
Observed Flight Rules
Apr-21 @ 15:00 UTC (40 minutes ago) Visual Flight Rules
Wind Visibility Clouds
180° at 6 knots 9 miles
  • Clear skies
Temperatures Readings
Current 8°C / 46°F
Dewpoint -2°C / 28°F
Humidity 50%
Altimeter 30.24" Hg
Pressure 1025.7 hPa
Elevation 290
METAR CZSJ 211500Z AUTO 18006KT 150V210 9SM CLR 08/M02 A3024 RMK SLP257
Observed Flight Rules
Apr-21 @ 15:00 UTC
(40 minutes ago)
VFR
Wind Visibility
180° at 6 knots 9 miles
Clouds
  • Clear skies
Temperature Dewpoint
8°C / 46°F -2°C / 28°F
Humidity Altimeter Pressure
50% 30.24" Hg 1025.7 hPa